sensor_id;sensor_type;location;lat;lon;timestamp;P1;durP1;ratioP1;P2;durP2;ratioP2
19525;SDS011;9907;42.676;26.348;2023-02-01T00:02:04;4.60;;;4.10;;
19525;SDS011;9907;42.676;26.348;2023-02-01T00:04:29;4.30;;;3.80;;
19525;SDS011;9907;42.676;26.348;2023-02-01T00:06:55;4.57;;;3.80;;
19525;SDS011;9907;42.676;26.348;2023-02-01T00:09:21;4.23;;;3.83;;
19525;SDS011;9907;42.676;26.348;2023-02-01T00:11:46;3.97;;;3.63;;
19525;SDS011;9907;42.676;26.348;2023-02-01T00:14:11;4.83;;;3.83;;
19525;SDS011;9907;42.676;26.348;2023-02-01T00:16:37;4.40;;;4.00;;
19525;SDS011;9907;42.676;26.348;2023-02-01T00:19:07;4.07;;;3.70;;
19525;SDS011;9907;42.676;26.348;2023-02-01T00:21:36;4.47;;;3.80;;
19525;SDS011;9907;42.676;26.348;2023-02-01T00:24:02;4.30;;;3.70;;
19525;SDS011;9907;42.676;26.348;2023-02-01T00:26:32;5.37;;;3.20;;
19525;SDS011;9907;42.676;26.348;2023-02-01T00:28:58;4.00;;;3.40;;
19525;SDS011;9907;42.676;26.348;2023-02-01T00:31:23;3.80;;;3.50;;
19525;SDS011;9907;42.676;26.348;2023-02-01T00:33:49;4.13;;;3.03;;
19525;SDS011;9907;42.676;26.348;2023-02-01T00:36:15;3.37;;;3.07;;
19525;SDS011;9907;42.676;26.348;2023-02-01T00:38:41;3.63;;;2.90;;
19525;SDS011;9907;42.676;26.348;2023-02-01T00:41:09;3.40;;;3.10;;
19525;SDS011;9907;42.676;26.348;2023-02-01T00:43:36;3.53;;;3.23;;
19525;SDS011;9907;42.676;26.348;2023-02-01T00:46:02;3.97;;;3.30;;
19525;SDS011;9907;42.676;26.348;2023-02-01T00:48:28;3.57;;;3.20;;
19525;SDS011;9907;42.676;26.348;2023-02-01T00:50:53;3.90;;;3.00;;
19525;SDS011;9907;42.676;26.348;2023-02-01T00:53:19;3.40;;;3.10;;
19525;SDS011;9907;42.676;26.348;2023-02-01T00:55:44;3.20;;;2.90;;
19525;SDS011;9907;42.676;26.348;2023-02-01T00:58:11;3.57;;;3.23;;
19525;SDS011;9907;42.676;26.348;2023-02-01T01:00:37;3.23;;;2.93;;
19525;SDS011;9907;42.676;26.348;2023-02-01T01:03:02;3.07;;;2.77;;
19525;SDS011;9907;42.676;26.348;2023-02-01T01:05:42;4.33;;;3.20;;
19525;SDS011;9907;42.676;26.348;2023-02-01T01:08:11;3.03;;;2.73;;
19525;SDS011;9907;42.676;26.348;2023-02-01T01:10:37;3.80;;;3.00;;
19525;SDS011;9907;42.676;26.348;2023-02-01T01:13:02;3.30;;;3.00;;
19525;SDS011;9907;42.676;26.348;2023-02-01T01:15:28;3.03;;;2.73;;
19525;SDS011;9907;42.676;26.348;2023-02-01T01:17:53;3.60;;;3.30;;
19525;SDS011;9907;42.676;26.348;2023-02-01T01:20:19;3.23;;;2.83;;
19525;SDS011;9907;42.676;26.348;2023-02-01T01:22:46;2.63;;;2.43;;
19525;SDS011;9907;42.676;26.348;2023-02-01T01:25:12;3.13;;;2.90;;
19525;SDS011;9907;42.676;26.348;2023-02-01T01:27:38;3.37;;;3.07;;
19525;SDS011;9907;42.676;26.348;2023-02-01T01:30:04;3.33;;;2.83;;
19525;SDS011;9907;42.676;26.348;2023-02-01T01:32:30;3.90;;;2.87;;
19525;SDS011;9907;42.676;26.348;2023-02-01T01:34:55;3.07;;;2.83;;
19525;SDS011;9907;42.676;26.348;2023-02-01T01:37:21;3.37;;;3.07;;
19525;SDS011;9907;42.676;26.348;2023-02-01T01:39:46;3.30;;;3.00;;
19525;SDS011;9907;42.676;26.348;2023-02-01T01:42:12;3.90;;;3.23;;
19525;SDS011;9907;42.676;26.348;2023-02-01T01:47:27;3.20;;;2.90;;
19525;SDS011;9907;42.676;26.348;2023-02-01T01:49:57;3.37;;;3.07;;
19525;SDS011;9907;42.676;26.348;2023-02-01T01:52:23;4.40;;;3.50;;
19525;SDS011;9907;42.676;26.348;2023-02-01T01:54:49;4.90;;;3.27;;
19525;SDS011;9907;42.676;26.348;2023-02-01T01:57:18;4.87;;;3.20;;
19525;SDS011;9907;42.676;26.348;2023-02-01T01:59:57;3.63;;;3.23;;
19525;SDS011;9907;42.676;26.348;2023-02-01T02:02:30;5.23;;;3.47;;
19525;SDS011;9907;42.676;26.348;2023-02-01T02:04:56;4.20;;;3.47;;
19525;SDS011;9907;42.676;26.348;2023-02-01T02:07:27;4.40;;;3.67;;
19525;SDS011;9907;42.676;26.348;2023-02-01T02:09:56;4.17;;;3.83;;
19525;SDS011;9907;42.676;26.348;2023-02-01T02:12:22;4.60;;;3.50;;
19525;SDS011;9907;42.676;26.348;2023-02-01T02:14:48;4.10;;;3.70;;
19525;SDS011;9907;42.676;26.348;2023-02-01T02:20:25;5.70;;;4.00;;
19525;SDS011;9907;42.676;26.348;2023-02-01T02:33:50;5.47;;;4.23;;
19525;SDS011;9907;42.676;26.348;2023-02-01T02:42:38;5.10;;;3.87;;
19525;SDS011;9907;42.676;26.348;2023-02-01T02:50:53;4.80;;;4.30;;
19525;SDS011;9907;42.676;26.348;2023-02-01T02:53:48;4.37;;;3.90;;
19525;SDS011;9907;42.676;26.348;2023-02-01T02:56:40;4.07;;;3.77;;
19525;SDS011;9907;42.676;26.348;2023-02-01T02:59:25;3.90;;;3.50;;
19525;SDS011;9907;42.676;26.348;2023-02-01T03:02:11;3.67;;;3.37;;
19525;SDS011;9907;42.676;26.348;2023-02-01T03:04:56;4.63;;;3.93;;
19525;SDS011;9907;42.676;26.348;2023-02-01T03:10:10;3.80;;;3.33;;
19525;SDS011;9907;42.676;26.348;2023-02-01T03:12:46;3.90;;;3.60;;
19525;SDS011;9907;42.676;26.348;2023-02-01T03:15:39;4.97;;;4.13;;
19525;SDS011;9907;42.676;26.348;2023-02-01T03:19:14;5.07;;;4.20;;
19525;SDS011;9907;42.676;26.348;2023-02-01T03:21:21;5.17;;;4.13;;
19525;SDS011;9907;42.676;26.348;2023-02-01T03:23:51;5.13;;;4.57;;
19525;SDS011;9907;42.676;26.348;2023-02-01T03:26:18;5.43;;;4.00;;
19525;SDS011;9907;42.676;26.348;2023-02-01T03:28:49;6.53;;;4.03;;
19525;SDS011;9907;42.676;26.348;2023-02-01T03:31:21;4.60;;;4.10;;
19525;SDS011;9907;42.676;26.348;2023-02-01T03:33:47;5.30;;;4.20;;
19525;SDS011;9907;42.676;26.348;2023-02-01T03:38:45;5.40;;;4.23;;
19525;SDS011;9907;42.676;26.348;2023-02-01T03:43:58;5.60;;;4.50;;
19525;SDS011;9907;42.676;26.348;2023-02-01T03:46:32;4.97;;;4.30;;
19525;SDS011;9907;42.676;26.348;2023-02-01T03:49:03;4.87;;;4.37;;
19525;SDS011;9907;42.676;26.348;2023-02-01T03:51:33;4.73;;;4.33;;
19525;SDS011;9907;42.676;26.348;2023-02-01T03:54:01;4.73;;;4.30;;
19525;SDS011;9907;42.676;26.348;2023-02-01T03:56:29;5.63;;;4.80;;
19525;SDS011;9907;42.676;26.348;2023-02-01T03:58:58;5.77;;;4.83;;
19525;SDS011;9907;42.676;26.348;2023-02-01T04:01:27;5.53;;;5.00;;
19525;SDS011;9907;42.676;26.348;2023-02-01T04:03:54;5.20;;;4.70;;
19525;SDS011;9907;42.676;26.348;2023-02-01T04:06:19;6.40;;;4.47;;
19525;SDS011;9907;42.676;26.348;2023-02-01T04:08:45;7.13;;;5.20;;
19525;SDS011;9907;42.676;26.348;2023-02-01T04:11:11;5.40;;;4.30;;
19525;SDS011;9907;42.676;26.348;2023-02-01T04:13:36;4.70;;;3.67;;
19525;SDS011;9907;42.676;26.348;2023-02-01T04:16:03;4.03;;;3.63;;
19525;SDS011;9907;42.676;26.348;2023-02-01T04:18:29;3.97;;;3.67;;
19525;SDS011;9907;42.676;26.348;2023-02-01T04:20:54;4.20;;;3.50;;
19525;SDS011;9907;42.676;26.348;2023-02-01T04:23:20;3.63;;;3.30;;
19525;SDS011;9907;42.676;26.348;2023-02-01T04:25:45;3.87;;;3.47;;
19525;SDS011;9907;42.676;26.348;2023-02-01T04:28:11;4.20;;;3.80;;
19525;SDS011;9907;42.676;26.348;2023-02-01T04:30:36;5.47;;;4.23;;
19525;SDS011;9907;42.676;26.348;2023-02-01T04:33:02;4.80;;;4.40;;
19525;SDS011;9907;42.676;26.348;2023-02-01T04:35:30;7.53;;;5.90;;
19525;SDS011;9907;42.676;26.348;2023-02-01T04:37:56;10.03;;;7.63;;
19525;SDS011;9907;42.676;26.348;2023-02-01T04:40:21;9.80;;;7.90;;
19525;SDS011;9907;42.676;26.348;2023-02-01T04:42:47;9.73;;;7.13;;
19525;SDS011;9907;42.676;26.348;2023-02-01T04:45:12;8.33;;;6.50;;
19525;SDS011;9907;42.676;26.348;2023-02-01T04:47:38;7.57;;;6.37;;
19525;SDS011;9907;42.676;26.348;2023-02-01T04:50:04;6.10;;;5.50;;
19525;SDS011;9907;42.676;26.348;2023-02-01T04:52:31;5.40;;;4.50;;
19525;SDS011;9907;42.676;26.348;2023-02-01T04:54:56;7.00;;;5.30;;
19525;SDS011;9907;42.676;26.348;2023-02-01T04:57:24;6.17;;;5.40;;
19525;SDS011;9907;42.676;26.348;2023-02-01T04:59:50;5.53;;;4.93;;
19525;SDS011;9907;42.676;26.348;2023-02-01T05:02:15;5.17;;;4.77;;
19525;SDS011;9907;42.676;26.348;2023-02-01T05:04:41;4.37;;;3.97;;
19525;SDS011;9907;42.676;26.348;2023-02-01T05:07:06;4.83;;;4.20;;
19525;SDS011;9907;42.676;26.348;2023-02-01T05:09:32;5.00;;;4.60;;
19525;SDS011;9907;42.676;26.348;2023-02-01T05:11:57;4.53;;;4.03;;
19525;SDS011;9907;42.676;26.348;2023-02-01T05:14:41;4.57;;;4.17;;
19525;SDS011;9907;42.676;26.348;2023-02-01T05:17:07;4.40;;;4.00;;
19525;SDS011;9907;42.676;26.348;2023-02-01T05:19:32;4.23;;;3.63;;
19525;SDS011;9907;42.676;26.348;2023-02-01T05:21:58;4.80;;;4.40;;
19525;SDS011;9907;42.676;26.348;2023-02-01T05:24:23;4.83;;;4.20;;
19525;SDS011;9907;42.676;26.348;2023-02-01T05:26:49;5.83;;;4.43;;
19525;SDS011;9907;42.676;26.348;2023-02-01T05:29:14;6.93;;;4.77;;
19525;SDS011;9907;42.676;26.348;2023-02-01T05:31:41;6.27;;;5.20;;
19525;SDS011;9907;42.676;26.348;2023-02-01T05:34:09;6.87;;;5.20;;
19525;SDS011;9907;42.676;26.348;2023-02-01T05:36:35;6.37;;;5.13;;
19525;SDS011;9907;42.676;26.348;2023-02-01T05:39:00;5.10;;;4.57;;
19525;SDS011;9907;42.676;26.348;2023-02-01T05:41:26;5.63;;;3.73;;
19525;SDS011;9907;42.676;26.348;2023-02-01T05:43:51;6.63;;;4.63;;
19525;SDS011;9907;42.676;26.348;2023-02-01T05:46:17;3.90;;;3.60;;
19525;SDS011;9907;42.676;26.348;2023-02-01T05:48:42;5.43;;;3.43;;
19525;SDS011;9907;42.676;26.348;2023-02-01T05:51:08;4.33;;;3.43;;
19525;SDS011;9907;42.676;26.348;2023-02-01T05:53:35;5.10;;;4.03;;
19525;SDS011;9907;42.676;26.348;2023-02-01T05:56:01;3.67;;;3.00;;
19525;SDS011;9907;42.676;26.348;2023-02-01T05:58:27;3.50;;;3.20;;
19525;SDS011;9907;42.676;26.348;2023-02-01T06:00:52;4.67;;;3.40;;
19525;SDS011;9907;42.676;26.348;2023-02-01T06:03:18;4.33;;;3.07;;
19525;SDS011;9907;42.676;26.348;2023-02-01T06:05:44;3.30;;;2.90;;
19525;SDS011;9907;42.676;26.348;2023-02-01T06:08:10;3.77;;;3.30;;
19525;SDS011;9907;42.676;26.348;2023-02-01T06:10:36;5.03;;;3.77;;
19525;SDS011;9907;42.676;26.348;2023-02-01T06:13:02;5.63;;;3.80;;
19525;SDS011;9907;42.676;26.348;2023-02-01T06:15:28;5.43;;;3.27;;
19525;SDS011;9907;42.676;26.348;2023-02-01T06:17:53;4.20;;;3.27;;
19525;SDS011;9907;42.676;26.348;2023-02-01T06:20:19;5.80;;;3.67;;
19525;SDS011;9907;42.676;26.348;2023-02-01T06:22:45;5.53;;;3.70;;
19525;SDS011;9907;42.676;26.348;2023-02-01T06:25:11;5.80;;;3.63;;
19525;SDS011;9907;42.676;26.348;2023-02-01T06:27:37;5.63;;;3.30;;
19525;SDS011;9907;42.676;26.348;2023-02-01T06:30:03;4.00;;;3.30;;
19525;SDS011;9907;42.676;26.348;2023-02-01T06:32:30;4.97;;;3.77;;
19525;SDS011;9907;42.676;26.348;2023-02-01T06:34:56;6.13;;;3.67;;
19525;SDS011;9907;42.676;26.348;2023-02-01T06:37:22;3.77;;;3.33;;
19525;SDS011;9907;42.676;26.348;2023-02-01T06:39:54;4.87;;;4.27;;
19525;SDS011;9907;42.676;26.348;2023-02-01T06:42:19;5.13;;;4.57;;
19525;SDS011;9907;42.676;26.348;2023-02-01T06:44:45;7.40;;;4.40;;
19525;SDS011;9907;42.676;26.348;2023-02-01T06:47:11;6.83;;;4.50;;
19525;SDS011;9907;42.676;26.348;2023-02-01T06:49:36;6.00;;;3.90;;
19525;SDS011;9907;42.676;26.348;2023-02-01T06:52:02;9.87;;;6.53;;
19525;SDS011;9907;42.676;26.348;2023-02-01T06:54:28;9.70;;;5.03;;
19525;SDS011;9907;42.676;26.348;2023-02-01T06:56:57;7.07;;;3.80;;
19525;SDS011;9907;42.676;26.348;2023-02-01T06:59:22;6.70;;;4.27;;
19525;SDS011;9907;42.676;26.348;2023-02-01T07:01:48;9.33;;;5.30;;
19525;SDS011;9907;42.676;26.348;2023-02-01T07:04:13;8.87;;;3.93;;
19525;SDS011;9907;42.676;26.348;2023-02-01T07:06:39;6.63;;;3.60;;
19525;SDS011;9907;42.676;26.348;2023-02-01T07:09:05;13.97;;;7.67;;
19525;SDS011;9907;42.676;26.348;2023-02-01T07:11:31;8.50;;;3.97;;
19525;SDS011;9907;42.676;26.348;2023-02-01T07:13:57;4.90;;;3.30;;
19525;SDS011;9907;42.676;26.348;2023-02-01T07:16:23;4.47;;;2.67;;
19525;SDS011;9907;42.676;26.348;2023-02-01T07:18:50;4.13;;;2.93;;
19525;SDS011;9907;42.676;26.348;2023-02-01T07:21:17;3.43;;;2.67;;
19525;SDS011;9907;42.676;26.348;2023-02-01T07:23:42;4.47;;;2.50;;
19525;SDS011;9907;42.676;26.348;2023-02-01T07:26:10;4.67;;;3.30;;
19525;SDS011;9907;42.676;26.348;2023-02-01T07:28:38;10.03;;;6.00;;
19525;SDS011;9907;42.676;26.348;2023-02-01T07:31:07;4.87;;;2.93;;
19525;SDS011;9907;42.676;26.348;2023-02-01T07:33:36;3.53;;;2.20;;
19525;SDS011;9907;42.676;26.348;2023-02-01T07:36:03;4.93;;;3.20;;
19525;SDS011;9907;42.676;26.348;2023-02-01T07:38:30;6.77;;;3.63;;
19525;SDS011;9907;42.676;26.348;2023-02-01T07:41:02;5.10;;;3.33;;
19525;SDS011;9907;42.676;26.348;2023-02-01T07:43:29;3.57;;;2.90;;
19525;SDS011;9907;42.676;26.348;2023-02-01T07:45:55;4.20;;;3.10;;
19525;SDS011;9907;42.676;26.348;2023-02-01T07:48:24;3.60;;;2.53;;
19525;SDS011;9907;42.676;26.348;2023-02-01T07:51:00;3.73;;;2.17;;
19525;SDS011;9907;42.676;26.348;2023-02-01T07:53:28;3.37;;;2.00;;
19525;SDS011;9907;42.676;26.348;2023-02-01T07:55:54;2.20;;;2.00;;
19525;SDS011;9907;42.676;26.348;2023-02-01T07:58:21;2.40;;;2.20;;
19525;SDS011;9907;42.676;26.348;2023-02-01T08:00:47;1.77;;;1.67;;
19525;SDS011;9907;42.676;26.348;2023-02-01T08:03:31;2.53;;;1.90;;
19525;SDS011;9907;42.676;26.348;2023-02-01T08:05:56;4.63;;;2.30;;
19525;SDS011;9907;42.676;26.348;2023-02-01T08:08:22;4.87;;;2.40;;
19525;SDS011;9907;42.676;26.348;2023-02-01T08:10:48;4.83;;;2.27;;
19525;SDS011;9907;42.676;26.348;2023-02-01T08:13:14;2.63;;;1.90;;
19525;SDS011;9907;42.676;26.348;2023-02-01T08:15:39;2.63;;;1.90;;
19525;SDS011;9907;42.676;26.348;2023-02-01T08:18:05;2.73;;;2.20;;
19525;SDS011;9907;42.676;26.348;2023-02-01T08:20:30;3.93;;;2.30;;
19525;SDS011;9907;42.676;26.348;2023-02-01T08:22:56;3.03;;;2.60;;
19525;SDS011;9907;42.676;26.348;2023-02-01T08:25:22;2.43;;;2.23;;
19525;SDS011;9907;42.676;26.348;2023-02-01T08:27:49;2.83;;;2.20;;
19525;SDS011;9907;42.676;26.348;2023-02-01T08:30:14;3.67;;;2.60;;
19525;SDS011;9907;42.676;26.348;2023-02-01T08:32:40;3.57;;;2.20;;
19525;SDS011;9907;42.676;26.348;2023-02-01T08:35:06;3.47;;;2.20;;
19525;SDS011;9907;42.676;26.348;2023-02-01T08:37:32;2.80;;;2.00;;
19525;SDS011;9907;42.676;26.348;2023-02-01T08:39:57;4.27;;;2.17;;
19525;SDS011;9907;42.676;26.348;2023-02-01T08:42:23;3.80;;;2.60;;
19525;SDS011;9907;42.676;26.348;2023-02-01T08:45:07;2.90;;;2.00;;
19525;SDS011;9907;42.676;26.348;2023-02-01T08:47:34;3.37;;;2.00;;
19525;SDS011;9907;42.676;26.348;2023-02-01T08:50:00;4.23;;;2.13;;
19525;SDS011;9907;42.676;26.348;2023-02-01T08:52:26;2.30;;;2.10;;
19525;SDS011;9907;42.676;26.348;2023-02-01T08:54:51;3.30;;;2.20;;
19525;SDS011;9907;42.676;26.348;2023-02-01T08:57:16;2.57;;;2.30;;
19525;SDS011;9907;42.676;26.348;2023-02-01T08:59:42;2.30;;;2.10;;
19525;SDS011;9907;42.676;26.348;2023-02-01T09:02:12;4.13;;;2.30;;
19525;SDS011;9907;42.676;26.348;2023-02-01T09:04:38;5.43;;;3.43;;
19525;SDS011;9907;42.676;26.348;2023-02-01T09:07:04;7.33;;;5.93;;
19525;SDS011;9907;42.676;26.348;2023-02-01T09:09:29;4.60;;;3.40;;
19525;SDS011;9907;42.676;26.348;2023-02-01T09:11:55;2.30;;;2.07;;
19525;SDS011;9907;42.676;26.348;2023-02-01T09:14:20;5.03;;;3.50;;
19525;SDS011;9907;42.676;26.348;2023-02-01T09:16:46;4.67;;;3.37;;
19525;SDS011;9907;42.676;26.348;2023-02-01T09:19:11;3.97;;;3.57;;
19525;SDS011;9907;42.676;26.348;2023-02-01T09:21:37;3.40;;;2.50;;
19525;SDS011;9907;42.676;26.348;2023-02-01T09:24:02;3.23;;;2.60;;
19525;SDS011;9907;42.676;26.348;2023-02-01T09:26:29;5.33;;;4.80;;
19525;SDS011;9907;42.676;26.348;2023-02-01T09:28:54;5.27;;;3.00;;
19525;SDS011;9907;42.676;26.348;2023-02-01T09:31:20;3.07;;;2.57;;
19525;SDS011;9907;42.676;26.348;2023-02-01T09:33:45;3.47;;;3.13;;
19525;SDS011;9907;42.676;26.348;2023-02-01T09:36:11;4.53;;;2.57;;
19525;SDS011;9907;42.676;26.348;2023-02-01T09:38:36;3.93;;;2.50;;
19525;SDS011;9907;42.676;26.348;2023-02-01T09:41:06;4.87;;;2.63;;
19525;SDS011;9907;42.676;26.348;2023-02-01T09:46:24;4.47;;;2.20;;
19525;SDS011;9907;42.676;26.348;2023-02-01T09:48:53;4.20;;;3.13;;
19525;SDS011;9907;42.676;26.348;2023-02-01T09:51:24;5.13;;;2.80;;
19525;SDS011;9907;42.676;26.348;2023-02-01T09:54:00;3.00;;;2.40;;
19525;SDS011;9907;42.676;26.348;2023-02-01T09:56:44;5.13;;;2.50;;
19525;SDS011;9907;42.676;26.348;2023-02-01T10:02:11;2.87;;;2.20;;
19525;SDS011;9907;42.676;26.348;2023-02-01T10:04:41;6.03;;;2.90;;
19525;SDS011;9907;42.676;26.348;2023-02-01T10:12:25;3.13;;;2.30;;
19525;SDS011;9907;42.676;26.348;2023-02-01T10:21:14;5.80;;;3.20;;
19525;SDS011;9907;42.676;26.348;2023-02-01T10:26:55;5.00;;;3.27;;
19525;SDS011;9907;42.676;26.348;2023-02-01T10:29:28;4.00;;;3.27;;
19525;SDS011;9907;42.676;26.348;2023-02-01T10:32:00;6.30;;;2.43;;
19525;SDS011;9907;42.676;26.348;2023-02-01T10:34:31;2.83;;;2.20;;
19525;SDS011;9907;42.676;26.348;2023-02-01T10:37:01;3.40;;;2.73;;
19525;SDS011;9907;42.676;26.348;2023-02-01T10:39:38;6.10;;;4.07;;
19525;SDS011;9907;42.676;26.348;2023-02-01T10:42:04;4.87;;;3.43;;
19525;SDS011;9907;42.676;26.348;2023-02-01T10:44:30;3.00;;;2.43;;
19525;SDS011;9907;42.676;26.348;2023-02-01T10:46:57;3.73;;;2.40;;
19525;SDS011;9907;42.676;26.348;2023-02-01T10:49:24;3.27;;;2.53;;
19525;SDS011;9907;42.676;26.348;2023-02-01T10:52:02;3.73;;;3.03;;
19525;SDS011;9907;42.676;26.348;2023-02-01T10:54:37;5.77;;;3.20;;
19525;SDS011;9907;42.676;26.348;2023-02-01T10:57:23;10.23;;;5.00;;
19525;SDS011;9907;42.676;26.348;2023-02-01T10:59:51;9.23;;;3.70;;
19525;SDS011;9907;42.676;26.348;2023-02-01T11:02:27;3.37;;;3.00;;
19525;SDS011;9907;42.676;26.348;2023-02-01T11:05:03;2.83;;;2.50;;
19525;SDS011;9907;42.676;26.348;2023-02-01T11:07:33;3.10;;;2.60;;
19525;SDS011;9907;42.676;26.348;2023-02-01T11:10:00;3.93;;;2.90;;
19525;SDS011;9907;42.676;26.348;2023-02-01T11:12:29;4.67;;;2.43;;
19525;SDS011;9907;42.676;26.348;2023-02-01T11:15:13;3.50;;;2.67;;
19525;SDS011;9907;42.676;26.348;2023-02-01T11:17:44;3.30;;;2.77;;
19525;SDS011;9907;42.676;26.348;2023-02-01T11:20:16;3.63;;;2.77;;
19525;SDS011;9907;42.676;26.348;2023-02-01T11:23:05;7.33;;;2.90;;
19525;SDS011;9907;42.676;26.348;2023-02-01T11:25:38;8.07;;;2.80;;
19525;SDS011;9907;42.676;26.348;2023-02-01T11:28:14;4.03;;;2.63;;
19525;SDS011;9907;42.676;26.348;2023-02-01T11:30:41;3.50;;;2.77;;
19525;SDS011;9907;42.676;26.348;2023-02-01T11:33:18;3.47;;;2.70;;
19525;SDS011;9907;42.676;26.348;2023-02-01T11:35:45;4.43;;;2.70;;
19525;SDS011;9907;42.676;26.348;2023-02-01T11:38:20;6.90;;;3.50;;
19525;SDS011;9907;42.676;26.348;2023-02-01T11:40:54;5.23;;;3.50;;
19525;SDS011;9907;42.676;26.348;2023-02-01T11:43:24;3.77;;;3.00;;
19525;SDS011;9907;42.676;26.348;2023-02-01T11:45:59;3.63;;;3.03;;
19525;SDS011;9907;42.676;26.348;2023-02-01T11:48:27;3.03;;;2.73;;
19525;SDS011;9907;42.676;26.348;2023-02-01T11:56:11;3.43;;;2.97;;
19525;SDS011;9907;42.676;26.348;2023-02-01T12:10:16;4.60;;;3.33;;
19525;SDS011;9907;42.676;26.348;2023-02-01T12:15:56;7.10;;;4.00;;
19525;SDS011;9907;42.676;26.348;2023-02-01T12:25:37;4.47;;;2.63;;
19525;SDS011;9907;42.676;26.348;2023-02-01T12:36:07;2.70;;;2.30;;
19525;SDS011;9907;42.676;26.348;2023-02-01T12:43:59;3.10;;;2.33;;
19525;SDS011;9907;42.676;26.348;2023-02-01T12:46:46;4.80;;;2.30;;
19525;SDS011;9907;42.676;26.348;2023-02-01T12:51:52;3.13;;;2.70;;
19525;SDS011;9907;42.676;26.348;2023-02-01T12:57:02;4.17;;;2.47;;
19525;SDS011;9907;42.676;26.348;2023-02-01T13:05:11;3.03;;;2.17;;
19525;SDS011;9907;42.676;26.348;2023-02-01T13:08:25;4.20;;;2.40;;
19525;SDS011;9907;42.676;26.348;2023-02-01T13:10:38;3.40;;;2.40;;
19525;SDS011;9907;42.676;26.348;2023-02-01T13:13:22;3.17;;;2.07;;
19525;SDS011;9907;42.676;26.348;2023-02-01T13:15:58;3.80;;;2.87;;
19525;SDS011;9907;42.676;26.348;2023-02-01T13:18:35;4.43;;;3.00;;
19525;SDS011;9907;42.676;26.348;2023-02-01T13:21:13;4.43;;;3.30;;
19525;SDS011;9907;42.676;26.348;2023-02-01T13:23:42;6.80;;;4.13;;
19525;SDS011;9907;42.676;26.348;2023-02-01T13:26:11;4.57;;;3.67;;
19525;SDS011;9907;42.676;26.348;2023-02-01T13:28:47;5.67;;;3.67;;
19525;SDS011;9907;42.676;26.348;2023-02-01T13:42:34;3.23;;;2.93;;
19525;SDS011;9907;42.676;26.348;2023-02-01T13:45:21;5.23;;;3.20;;
19525;SDS011;9907;42.676;26.348;2023-02-01T13:47:51;3.57;;;3.00;;
19525;SDS011;9907;42.676;26.348;2023-02-01T13:50:21;5.03;;;3.77;;
19525;SDS011;9907;42.676;26.348;2023-02-01T13:52:52;4.47;;;3.67;;
19525;SDS011;9907;42.676;26.348;2023-02-01T13:57:49;24.80;;;6.57;;
19525;SDS011;9907;42.676;26.348;2023-02-01T14:02:50;5.77;;;3.70;;
19525;SDS011;9907;42.676;26.348;2023-02-01T14:21:46;30.50;;;10.73;;
19525;SDS011;9907;42.676;26.348;2023-02-01T14:32:06;4.83;;;4.07;;
19525;SDS011;9907;42.676;26.348;2023-02-01T14:47:48;6.33;;;4.53;;
19525;SDS011;9907;42.676;26.348;2023-02-01T15:04:12;13.40;;;9.43;;
19525;SDS011;9907;42.676;26.348;2023-02-01T15:06:48;16.13;;;8.70;;
19525;SDS011;9907;42.676;26.348;2023-02-01T15:14:36;19.27;;;14.10;;
19525;SDS011;9907;42.676;26.348;2023-02-01T15:17:23;13.90;;;11.23;;
19525;SDS011;9907;42.676;26.348;2023-02-01T15:19:58;14.23;;;10.03;;
19525;SDS011;9907;42.676;26.348;2023-02-01T15:22:25;10.87;;;9.73;;
19525;SDS011;9907;42.676;26.348;2023-02-01T15:24:55;16.83;;;11.33;;
19525;SDS011;9907;42.676;26.348;2023-02-01T15:27:23;36.83;;;18.00;;
19525;SDS011;9907;42.676;26.348;2023-02-01T15:29:49;20.10;;;13.20;;
19525;SDS011;9907;42.676;26.348;2023-02-01T15:32:30;20.90;;;12.30;;
19525;SDS011;9907;42.676;26.348;2023-02-01T15:34:59;17.90;;;11.73;;
19525;SDS011;9907;42.676;26.348;2023-02-01T15:37:25;15.33;;;12.00;;
19525;SDS011;9907;42.676;26.348;2023-02-01T15:42:32;14.17;;;9.73;;
19525;SDS011;9907;42.676;26.348;2023-02-01T15:44:58;11.97;;;10.30;;
19525;SDS011;9907;42.676;26.348;2023-02-01T15:47:29;15.47;;;10.00;;
19525;SDS011;9907;42.676;26.348;2023-02-01T15:49:58;20.23;;;11.10;;
19525;SDS011;9907;42.676;26.348;2023-02-01T15:52:34;14.20;;;10.10;;
19525;SDS011;9907;42.676;26.348;2023-02-01T15:55:08;21.67;;;16.60;;
19525;SDS011;9907;42.676;26.348;2023-02-01T16:00:45;20.20;;;15.37;;
19525;SDS011;9907;42.676;26.348;2023-02-01T16:03:28;16.87;;;13.20;;
19525;SDS011;9907;42.676;26.348;2023-02-01T16:06:03;9.17;;;7.43;;
19525;SDS011;9907;42.676;26.348;2023-02-01T16:08:31;14.57;;;10.17;;
19525;SDS011;9907;42.676;26.348;2023-02-01T16:13:34;13.90;;;11.97;;
19525;SDS011;9907;42.676;26.348;2023-02-01T16:16:09;23.83;;;13.43;;
19525;SDS011;9907;42.676;26.348;2023-02-01T16:18:38;19.67;;;13.50;;
19525;SDS011;9907;42.676;26.348;2023-02-01T16:21:05;18.13;;;13.43;;
19525;SDS011;9907;42.676;26.348;2023-02-01T16:23:33;18.20;;;14.67;;
19525;SDS011;9907;42.676;26.348;2023-02-01T16:25:58;23.73;;;17.07;;
19525;SDS011;9907;42.676;26.348;2023-02-01T16:28:25;24.27;;;17.10;;
19525;SDS011;9907;42.676;26.348;2023-02-01T16:30:51;23.80;;;17.37;;
19525;SDS011;9907;42.676;26.348;2023-02-01T16:33:18;21.93;;;17.23;;
19525;SDS011;9907;42.676;26.348;2023-02-01T16:35:46;20.33;;;15.97;;
19525;SDS011;9907;42.676;26.348;2023-02-01T16:38:14;23.07;;;15.90;;
19525;SDS011;9907;42.676;26.348;2023-02-01T16:40:43;19.47;;;14.67;;
19525;SDS011;9907;42.676;26.348;2023-02-01T16:43:14;52.40;;;26.00;;
19525;SDS011;9907;42.676;26.348;2023-02-01T16:45:47;43.90;;;25.37;;
19525;SDS011;9907;42.676;26.348;2023-02-01T16:48:24;37.30;;;18.60;;
19525;SDS011;9907;42.676;26.348;2023-02-01T16:50:56;20.73;;;12.67;;
19525;SDS011;9907;42.676;26.348;2023-02-01T16:53:26;14.17;;;8.33;;
19525;SDS011;9907;42.676;26.348;2023-02-01T16:55:53;12.00;;;6.93;;
19525;SDS011;9907;42.676;26.348;2023-02-01T16:58:20;6.67;;;4.57;;
19525;SDS011;9907;42.676;26.348;2023-02-01T17:00:47;4.50;;;3.90;;
19525;SDS011;9907;42.676;26.348;2023-02-01T17:03:13;5.50;;;4.10;;
19525;SDS011;9907;42.676;26.348;2023-02-01T17:05:41;5.70;;;4.20;;
19525;SDS011;9907;42.676;26.348;2023-02-01T17:08:11;6.43;;;3.73;;
19525;SDS011;9907;42.676;26.348;2023-02-01T17:10:43;11.73;;;6.97;;
19525;SDS011;9907;42.676;26.348;2023-02-01T17:13:11;7.23;;;4.80;;
19525;SDS011;9907;42.676;26.348;2023-02-01T17:15:38;5.93;;;4.10;;
19525;SDS011;9907;42.676;26.348;2023-02-01T17:18:05;4.00;;;3.30;;
19525;SDS011;9907;42.676;26.348;2023-02-01T17:20:31;4.63;;;2.87;;
19525;SDS011;9907;42.676;26.348;2023-02-01T17:22:57;3.27;;;2.77;;
19525;SDS011;9907;42.676;26.348;2023-02-01T17:25:23;4.23;;;3.33;;
19525;SDS011;9907;42.676;26.348;2023-02-01T17:27:50;4.20;;;3.37;;
19525;SDS011;9907;42.676;26.348;2023-02-01T17:30:15;8.27;;;4.40;;
19525;SDS011;9907;42.676;26.348;2023-02-01T17:32:41;6.67;;;4.10;;
19525;SDS011;9907;42.676;26.348;2023-02-01T17:35:28;4.97;;;3.87;;
19525;SDS011;9907;42.676;26.348;2023-02-01T17:37:56;4.97;;;3.80;;
19525;SDS011;9907;42.676;26.348;2023-02-01T17:40:24;4.47;;;4.07;;
19525;SDS011;9907;42.676;26.348;2023-02-01T17:42:49;5.50;;;4.27;;
19525;SDS011;9907;42.676;26.348;2023-02-01T17:45:26;6.70;;;4.60;;
19525;SDS011;9907;42.676;26.348;2023-02-01T17:47:58;7.33;;;4.97;;
19525;SDS011;9907;42.676;26.348;2023-02-01T17:50:25;5.50;;;4.13;;
19525;SDS011;9907;42.676;26.348;2023-02-01T17:52:52;7.17;;;4.63;;
19525;SDS011;9907;42.676;26.348;2023-02-01T17:55:19;7.70;;;5.27;;
19525;SDS011;9907;42.676;26.348;2023-02-01T17:57:48;5.97;;;5.00;;
19525;SDS011;9907;42.676;26.348;2023-02-01T18:00:14;8.30;;;5.60;;
19525;SDS011;9907;42.676;26.348;2023-02-01T18:02:41;7.73;;;6.10;;
19525;SDS011;9907;42.676;26.348;2023-02-01T18:05:18;9.43;;;8.07;;
19525;SDS011;9907;42.676;26.348;2023-02-01T18:07:47;9.97;;;7.40;;